Time;durP1;ratioP1;P1;durP2;ratioP2;P2;SDS_P1;SDS_P2;PMS_P1;PMS_P2;Temp;Humidity;BMP_temperature;BMP_pressure;BME280_temperature;BME280_humidity;BME280_pressure;Samples;Min_cycle;Max_cycle;Signal;HPM_P1;HPM_P2
2022/07/19 19:09:37;;;;;;;1.50;1.10;;;34.20;50.80;;;;;;5089251;22;20063;-92
2022/07/19 19:12:06;;;;;;;1.42;1.10;;;34.00;51.00;;;;;;5075857;28;20120;-92
2022/07/19 19:14:31;;;;;;;2.55;1.17;;;33.90;51.50;;;;;;5060797;28;20032;-92
2022/07/19 19:16:57;;;;;;;2.45;1.35;;;33.70;52.10;;;;;;5073860;28;20844;-94
2022/07/19 19:19:23;;;;;;;3.22;1.50;;;33.60;52.70;;;;;;5074304;28;20071;-93
2022/07/19 19:21:49;;;;;;;3.00;1.45;;;33.40;53.10;;;;;;5075202;28;20021;-93
2022/07/19 19:24:15;;;;;;;1.88;1.30;;;33.30;53.70;;;;;;5063248;28;20511;-93
2022/07/19 19:29:06;;;;;;;2.95;1.60;;;32.90;54.50;;;;;;5061435;22;20044;-93
2022/07/19 19:31:32;;;;;;;2.35;1.27;;;32.70;54.80;;;;;;5036725;28;20032;-93
2022/07/19 19:33:58;;;;;;;3.53;1.40;;;32.60;55.20;;;;;;5037159;28;20041;-94
2022/07/19 19:36:40;;;;;;;1.83;1.40;;;32.50;55.40;;;;;;5037952;28;20498;-94
2022/07/19 19:39:06;;;;;;;2.65;1.33;;;32.40;55.80;;;;;;5034949;28;20036;-92
2022/07/19 19:41:31;;;;;;;1.58;1.38;;;32.30;56.00;;;;;;5022360;28;20120;-93
2022/07/19 19:43:57;;;;;;;2.53;1.33;;;32.20;56.30;;;;;;5034884;28;20075;-93
2022/07/19 19:46:23;;;;;;;1.73;1.20;;;32.10;56.60;;;;;;5018167;28;20029;-92
2022/07/19 19:48:48;;;;;;;2.95;1.30;;;31.90;56.80;;;;;;5019855;28;20049;-90
2022/07/19 19:51:14;;;;;;;5.43;1.35;;;31.90;57.10;;;;;;5029106;28;20055;-90
2022/07/19 19:53:40;;;;;;;2.55;1.50;;;31.70;57.30;;;;;;5029564;28;20095;-91
2022/07/19 19:56:11;;;;;;;4.78;1.70;;;31.60;57.70;;;;;;5015905;28;20034;-88
2022/07/19 19:58:36;;;;;;;2.97;1.65;;;31.60;58.10;;;;;;5021552;28;20032;-94
2022/07/19 20:01:03;;;;;;;2.25;1.50;;;31.50;58.20;;;;;;5037638;28;20394;-89
2022/07/19 20:03:32;;;;;;;4.07;1.73;;;31.40;58.50;;;;;;5022582;28;20136;-94
2022/07/19 20:06:00;;;;;;;2.38;1.60;;;31.30;58.90;;;;;;5021431;28;20055;-92
2022/07/19 20:08:26;;;;;;;3.00;1.58;;;31.30;59.10;;;;;;5035237;28;20070;-91
2022/07/19 20:10:53;;;;;;;2.85;1.55;;;31.20;59.20;;;;;;5029703;28;20076;-88
2022/07/19 20:13:20;;;;;;;2.60;1.50;;;31.10;59.10;;;;;;5031184;28;20037;-85
2022/07/19 20:15:46;;;;;;;3.13;1.50;;;31.10;59.10;;;;;;5029465;28;20118;-86
2022/07/19 20:18:12;;;;;;;2.92;1.60;;;31.10;59.20;;;;;;5011013;28;20071;-85
2022/07/19 20:20:38;;;;;;;2.08;1.50;;;31.00;59.10;;;;;;5035112;28;20037;-88
2022/07/19 20:23:04;;;;;;;2.25;1.50;;;31.00;59.10;;;;;;5011411;28;20111;-90
2022/07/19 20:25:30;;;;;;;2.15;1.40;;;31.00;58.80;;;;;;5014296;28;20039;-89
2022/07/19 20:27:56;;;;;;;2.22;1.60;;;30.90;58.60;;;;;;5052230;28;20048;-86
2022/07/19 20:30:21;;;;;;;3.00;1.67;;;30.90;58.60;;;;;;5051817;28;20052;-86
2022/07/19 20:32:47;;;;;;;3.38;1.55;;;30.80;58.40;;;;;;5059689;28;20044;-86
2022/07/19 20:35:13;;;;;;;2.53;1.40;;;30.80;58.40;;;;;;5043082;28;20033;-89
2022/07/19 20:37:39;;;;;;;4.40;1.80;;;30.70;58.30;;;;;;5076287;28;20684;-91
2022/07/19 20:40:05;;;;;;;2.95;1.85;;;30.70;58.30;;;;;;5037637;28;20061;-92
2022/07/19 20:42:31;;;;;;;3.80;1.65;;;30.60;58.40;;;;;;5056259;28;20123;-91
2022/07/19 20:44:56;;;;;;;2.70;1.80;;;30.50;58.50;;;;;;5062804;28;20120;-92
2022/07/19 20:47:22;;;;;;;2.67;1.65;;;30.40;58.70;;;;;;5046590;28;20036;-88
2022/07/19 20:49:48;;;;;;;2.67;1.90;;;30.40;59.10;;;;;;5059081;28;20052;-93
2022/07/19 20:52:15;;;;;;;3.25;1.83;;;30.30;59.20;;;;;;5051506;28;20040;-92
2022/07/19 20:54:40;;;;;;;2.50;1.40;;;30.20;59.50;;;;;;5046593;28;20025;-92
2022/07/19 20:57:06;;;;;;;2.92;1.73;;;30.10;59.70;;;;;;5072957;28;20440;-92
2022/07/19 20:59:32;;;;;;;2.58;1.85;;;30.00;60.00;;;;;;5042878;28;20043;-90
2022/07/19 21:01:57;;;;;;;1.92;1.60;;;29.80;60.40;;;;;;5034868;28;20021;-91
2022/07/19 21:04:23;;;;;;;4.10;1.80;;;29.70;60.70;;;;;;5038301;28;20029;-90
2022/07/19 21:06:49;;;;;;;2.10;1.48;;;29.60;60.80;;;;;;5055005;28;20086;-91
2022/07/19 21:09:15;;;;;;;2.70;1.73;;;29.60;61.10;;;;;;5053949;28;20048;-90
2022/07/19 21:11:40;;;;;;;2.15;1.40;;;29.50;61.10;;;;;;5039312;28;20581;-90
2022/07/19 21:14:06;;;;;;;3.78;1.75;;;29.40;61.10;;;;;;5051656;28;20041;-89
2022/07/19 21:16:31;;;;;;;2.75;2.00;;;29.40;61.10;;;;;;5054508;28;20141;-90
2022/07/19 21:18:57;;;;;;;5.55;1.80;;;29.40;61.10;;;;;;5054288;28;20122;-90
2022/07/19 21:21:23;;;;;;;2.17;1.60;;;29.40;60.90;;;;;;5043285;28;20036;-89
2022/07/19 21:23:49;;;;;;;2.22;1.67;;;29.40;60.70;;;;;;5034565;28;20025;-91
2022/07/19 21:26:15;;;;;;;3.67;1.45;;;29.40;60.60;;;;;;5036098;28;20025;-92
2022/07/19 21:28:41;;;;;;;3.33;1.70;;;29.40;60.50;;;;;;5066579;28;20097;-89
2022/07/19 21:31:06;;;;;;;2.80;1.63;;;29.30;60.40;;;;;;5054645;28;20116;-90
2022/07/19 21:33:32;;;;;;;2.95;1.60;;;29.30;60.50;;;;;;5034489;28;20033;-93
2022/07/19 21:35:59;;;;;;;3.08;1.70;;;29.20;60.60;;;;;;5053786;28;20585;-91
2022/07/19 21:38:24;;;;;;;4.03;1.80;;;29.10;60.70;;;;;;5055528;28;20048;-86
2022/07/19 21:40:50;;;;;;;2.38;1.65;;;29.00;60.80;;;;;;5068990;28;20367;-87
2022/07/19 21:43:16;;;;;;;2.28;1.67;;;29.00;61.10;;;;;;5040719;28;20040;-86
2022/07/19 21:45:41;;;;;;;2.60;1.80;;;28.90;61.30;;;;;;5048262;28;20033;-88
2022/07/19 21:48:08;;;;;;;3.85;1.80;;;28.80;61.60;;;;;;5065173;28;20048;-86
2022/07/19 21:50:34;;;;;;;2.83;1.80;;;28.70;61.80;;;;;;5030250;28;20032;-87
2022/07/19 21:53:00;;;;;;;3.65;2.05;;;28.70;62.00;;;;;;5038987;28;20166;-89
2022/07/19 21:55:26;;;;;;;3.25;1.85;;;28.60;62.30;;;;;;5039280;28;20876;-88
2022/07/19 21:57:52;;;;;;;3.08;1.85;;;28.50;62.40;;;;;;5030807;28;20052;-87
2022/07/19 22:00:19;;;;;;;4.13;1.90;;;28.40;62.50;;;;;;5047225;28;20654;-89
2022/07/19 22:02:45;;;;;;;3.10;1.80;;;28.40;62.60;;;;;;5036611;28;20095;-87
2022/07/19 22:05:11;;;;;;;2.72;1.60;;;28.30;62.70;;;;;;5050582;28;20036;-86
2022/07/19 22:07:39;;;;;;;2.30;1.73;;;28.30;62.70;;;;;;5068932;28;20135;-87
2022/07/19 22:10:05;;;;;;;3.53;1.92;;;28.20;62.80;;;;;;5049076;28;20048;-86
2022/07/19 22:12:31;;;;;;;2.95;1.92;;;28.20;62.90;;;;;;5033106;28;20024;-85
2022/07/19 22:14:58;;;;;;;3.35;2.08;;;28.10;63.00;;;;;;5064913;28;20101;-86
2022/07/19 22:17:24;;;;;;;3.17;1.92;;;28.10;63.10;;;;;;5048491;28;20028;-87
2022/07/19 22:19:50;;;;;;;3.28;2.00;;;28.00;63.20;;;;;;5048050;28;20044;-87
2022/07/19 22:22:16;;;;;;;4.05;2.10;;;27.90;63.90;;;;;;5030245;28;20683;-87
2022/07/19 22:24:42;;;;;;;3.60;2.13;;;27.90;63.40;;;;;;5045834;28;20045;-87
2022/07/19 22:27:07;;;;;;;3.65;1.77;;;27.80;63.40;;;;;;5026325;28;20041;-89
2022/07/19 22:29:33;;;;;;;3.30;1.92;;;27.70;63.50;;;;;;5027657;28;20048;-90
2022/07/19 22:31:59;;;;;;;3.53;1.73;;;27.70;63.60;;;;;;5044651;28;20051;-87
2022/07/19 22:34:24;;;;;;;3.67;1.85;;;27.60;63.70;;;;;;5026203;28;20045;-87
2022/07/19 22:36:50;;;;;;;2.78;1.75;;;27.60;63.70;;;;;;5026599;28;20048;-87
2022/07/19 22:39:16;;;;;;;4.50;1.85;;;27.50;63.70;;;;;;5025992;28;20491;-87
2022/07/19 22:41:41;;;;;;;3.88;1.92;;;27.50;63.80;;;;;;5040763;28;20037;-87
2022/07/19 22:44:07;;;;;;;2.60;1.48;;;27.40;63.70;;;;;;5029396;28;20399;-87
2022/07/19 22:46:33;;;;;;;2.95;1.75;;;27.40;63.90;;;;;;5043192;28;20037;-89
2022/07/19 22:48:58;;;;;;;2.53;1.67;;;27.30;63.90;;;;;;5037147;28;20123;-86
2022/07/19 22:51:24;;;;;;;2.53;1.80;;;27.30;64.00;;;;;;5033787;28;20033;-87
2022/07/19 22:53:49;;;;;;;3.47;1.67;;;27.30;64.10;;;;;;5033714;28;20644;-85
2022/07/19 22:56:15;;;;;;;3.38;1.77;;;27.20;64.20;;;;;;5045652;28;20025;-86
2022/07/19 22:58:41;;;;;;;3.50;1.95;;;27.20;64.20;;;;;;5046763;28;20426;-87
2022/07/19 23:01:07;;;;;;;3.95;2.05;;;27.20;64.20;;;;;;5063642;28;20037;-86
2022/07/19 23:03:32;;;;;;;2.30;1.60;;;27.10;64.10;;;;;;5062958;28;20045;-86
2022/07/19 23:05:58;;;;;;;1.98;1.50;;;27.10;64.00;;;;;;5047072;28;20025;-87
2022/07/19 23:08:25;;;;;;;2.13;1.67;;;27.10;64.00;;;;;;5030706;28;20038;-86
2022/07/19 23:10:51;;;;;;;2.20;1.60;;;27.00;64.00;;;;;;5030303;28;20084;-87
2022/07/19 23:13:16;;;;;;;4.47;1.80;;;27.00;64.00;;;;;;5043503;28;20022;-86
2022/07/19 23:15:42;;;;;;;2.20;1.65;;;26.90;63.90;;;;;;5057037;28;20454;-85
2022/07/19 23:18:08;;;;;;;2.42;1.60;;;26.90;63.90;;;;;;5045356;28;20034;-87
2022/07/19 23:20:34;;;;;;;3.38;1.80;;;26.90;63.90;;;;;;5027522;28;20487;-88
2022/07/19 23:22:59;;;;;;;2.35;1.63;;;26.90;63.90;;;;;;5036330;28;20032;-86
2022/07/19 23:25:41;;;;;;;3.03;1.88;;;26.80;63.80;;;;;;5052631;28;20060;-92
